sensor_id;sensor_type;location;lat;lon;timestamp;P1;durP1;ratioP1;P2;durP2;ratioP2
63326;SDS011;49452;48.366;10.926;2023-08-12T00:00:21;14.55;;;9.55;;
63326;SDS011;49452;48.366;10.926;2023-08-12T00:00:53;18.55;;;9.45;;
63326;SDS011;49452;48.366;10.926;2023-08-12T00:01:24;15.77;;;9.88;;
63326;SDS011;49452;48.366;10.926;2023-08-12T00:01:56;12.55;;;9.15;;
63326;SDS011;49452;48.366;10.926;2023-08-12T00:02:27;16.67;;;10.25;;
63326;SDS011;49452;48.366;10.926;2023-08-12T00:02:58;18.77;;;10.88;;
63326;SDS011;49452;48.366;10.926;2023-08-12T00:03:30;19.52;;;10.38;;
63326;SDS011;49452;48.366;10.926;2023-08-12T00:04:02;14.15;;;9.68;;
63326;SDS011;49452;48.366;10.926;2023-08-12T00:04:34;14.77;;;9.82;;
63326;SDS011;49452;48.366;10.926;2023-08-12T00:05:05;16.20;;;10.35;;
63326;SDS011;49452;48.366;10.926;2023-08-12T00:05:37;19.55;;;11.13;;
63326;SDS011;49452;48.366;10.926;2023-08-12T00:06:10;16.58;;;9.68;;
63326;SDS011;49452;48.366;10.926;2023-08-12T00:06:42;17.25;;;10.95;;
63326;SDS011;49452;48.366;10.926;2023-08-12T00:07:13;18.00;;;10.70;;
63326;SDS011;49452;48.366;10.926;2023-08-12T00:07:45;14.80;;;10.77;;
63326;SDS011;49452;48.366;10.926;2023-08-12T00:08:16;19.85;;;11.57;;
63326;SDS011;49452;48.366;10.926;2023-08-12T00:08:47;17.23;;;10.07;;
63326;SDS011;49452;48.366;10.926;2023-08-12T00:09:19;20.02;;;11.00;;
63326;SDS011;49452;48.366;10.926;2023-08-12T00:09:50;18.20;;;10.73;;
63326;SDS011;49452;48.366;10.926;2023-08-12T00:10:22;19.98;;;11.95;;
63326;SDS011;49452;48.366;10.926;2023-08-12T00:10:53;19.95;;;11.32;;
63326;SDS011;49452;48.366;10.926;2023-08-12T00:11:24;17.35;;;11.15;;
63326;SDS011;49452;48.366;10.926;2023-08-12T00:11:55;19.10;;;11.25;;
63326;SDS011;49452;48.366;10.926;2023-08-12T00:12:27;19.38;;;10.77;;
63326;SDS011;49452;48.366;10.926;2023-08-12T00:12:58;19.88;;;11.25;;
63326;SDS011;49452;48.366;10.926;2023-08-12T00:13:29;16.25;;;10.95;;
63326;SDS011;49452;48.366;10.926;2023-08-12T00:14:01;19.48;;;10.73;;
63326;SDS011;49452;48.366;10.926;2023-08-12T00:14:33;18.38;;;10.43;;
63326;SDS011;49452;48.366;10.926;2023-08-12T00:15:04;18.00;;;11.13;;
63326;SDS011;49452;48.366;10.926;2023-08-12T00:15:37;20.92;;;12.05;;
63326;SDS011;49452;48.366;10.926;2023-08-12T00:16:09;23.10;;;12.20;;
63326;SDS011;49452;48.366;10.926;2023-08-12T00:16:40;24.08;;;11.40;;
63326;SDS011;49452;48.366;10.926;2023-08-12T00:17:12;15.70;;;10.90;;
63326;SDS011;49452;48.366;10.926;2023-08-12T00:17:43;15.88;;;10.77;;
63326;SDS011;49452;48.366;10.926;2023-08-12T00:18:14;21.75;;;11.60;;
63326;SDS011;49452;48.366;10.926;2023-08-12T00:18:46;20.90;;;12.02;;
63326;SDS011;49452;48.366;10.926;2023-08-12T00:19:17;18.30;;;12.13;;
63326;SDS011;49452;48.366;10.926;2023-08-12T00:19:48;17.02;;;11.52;;
63326;SDS011;49452;48.366;10.926;2023-08-12T00:20:19;15.13;;;11.10;;
63326;SDS011;49452;48.366;10.926;2023-08-12T00:20:50;20.90;;;11.48;;
63326;SDS011;49452;48.366;10.926;2023-08-12T00:21:22;22.20;;;12.32;;
63326;SDS011;49452;48.366;10.926;2023-08-12T00:21:53;22.52;;;11.70;;
63326;SDS011;49452;48.366;10.926;2023-08-12T00:22:24;22.20;;;12.27;;
63326;SDS011;49452;48.366;10.926;2023-08-12T00:22:55;20.98;;;11.88;;
63326;SDS011;49452;48.366;10.926;2023-08-12T00:23:26;23.83;;;11.30;;
63326;SDS011;49452;48.366;10.926;2023-08-12T00:23:57;17.27;;;11.20;;
63326;SDS011;49452;48.366;10.926;2023-08-12T00:24:29;18.83;;;11.70;;
63326;SDS011;49452;48.366;10.926;2023-08-12T00:25:00;18.17;;;11.45;;
63326;SDS011;49452;48.366;10.926;2023-08-12T00:25:32;17.05;;;11.02;;
63326;SDS011;49452;48.366;10.926;2023-08-12T00:26:03;20.75;;;11.45;;
63326;SDS011;49452;48.366;10.926;2023-08-12T00:26:34;23.67;;;12.07;;
63326;SDS011;49452;48.366;10.926;2023-08-12T00:27:05;17.85;;;11.55;;
63326;SDS011;49452;48.366;10.926;2023-08-12T00:27:38;17.75;;;11.35;;
63326;SDS011;49452;48.366;10.926;2023-08-12T00:28:09;19.15;;;11.88;;
63326;SDS011;49452;48.366;10.926;2023-08-12T00:28:41;24.38;;;12.50;;
63326;SDS011;49452;48.366;10.926;2023-08-12T00:29:12;19.77;;;11.38;;
63326;SDS011;49452;48.366;10.926;2023-08-12T00:29:44;17.23;;;9.85;;
63326;SDS011;49452;48.366;10.926;2023-08-12T00:30:15;14.27;;;10.50;;
63326;SDS011;49452;48.366;10.926;2023-08-12T00:30:47;21.00;;;11.50;;
63326;SDS011;49452;48.366;10.926;2023-08-12T00:31:19;21.02;;;12.05;;
63326;SDS011;49452;48.366;10.926;2023-08-12T00:31:51;20.25;;;11.57;;
63326;SDS011;49452;48.366;10.926;2023-08-12T00:32:23;21.25;;;12.30;;
63326;SDS011;49452;48.366;10.926;2023-08-12T00:32:54;20.75;;;11.55;;
63326;SDS011;49452;48.366;10.926;2023-08-12T00:33:25;19.70;;;12.50;;
63326;SDS011;49452;48.366;10.926;2023-08-12T00:33:57;19.92;;;12.07;;
63326;SDS011;49452;48.366;10.926;2023-08-12T00:34:28;20.92;;;12.43;;
63326;SDS011;49452;48.366;10.926;2023-08-12T00:34:59;18.92;;;11.32;;
63326;SDS011;49452;48.366;10.926;2023-08-12T00:35:31;19.63;;;11.55;;
63326;SDS011;49452;48.366;10.926;2023-08-12T00:36:02;22.33;;;12.57;;
63326;SDS011;49452;48.366;10.926;2023-08-12T00:36:34;25.27;;;12.95;;
63326;SDS011;49452;48.366;10.926;2023-08-12T00:37:06;23.38;;;12.93;;
63326;SDS011;49452;48.366;10.926;2023-08-12T00:37:38;28.67;;;11.55;;
63326;SDS011;49452;48.366;10.926;2023-08-12T00:38:09;17.13;;;10.98;;
63326;SDS011;49452;48.366;10.926;2023-08-12T00:38:40;19.10;;;10.93;;
63326;SDS011;49452;48.366;10.926;2023-08-12T00:39:13;18.52;;;11.68;;
63326;SDS011;49452;48.366;10.926;2023-08-12T00:39:44;17.52;;;10.85;;
63326;SDS011;49452;48.366;10.926;2023-08-12T00:40:15;20.85;;;11.20;;
63326;SDS011;49452;48.366;10.926;2023-08-12T00:40:47;16.83;;;11.88;;
63326;SDS011;49452;48.366;10.926;2023-08-12T00:41:18;19.42;;;11.60;;
63326;SDS011;49452;48.366;10.926;2023-08-12T00:41:49;14.95;;;10.73;;
63326;SDS011;49452;48.366;10.926;2023-08-12T00:42:20;25.23;;;12.95;;
63326;SDS011;49452;48.366;10.926;2023-08-12T00:42:52;18.45;;;11.90;;
63326;SDS011;49452;48.366;10.926;2023-08-12T00:43:23;18.25;;;10.85;;
63326;SDS011;49452;48.366;10.926;2023-08-12T00:43:54;15.75;;;10.88;;
63326;SDS011;49452;48.366;10.926;2023-08-12T00:44:25;22.30;;;12.68;;
63326;SDS011;49452;48.366;10.926;2023-08-12T00:44:58;22.13;;;12.00;;
63326;SDS011;49452;48.366;10.926;2023-08-12T00:45:29;17.25;;;10.90;;
63326;SDS011;49452;48.366;10.926;2023-08-12T00:46:00;20.92;;;11.45;;
63326;SDS011;49452;48.366;10.926;2023-08-12T00:46:31;17.13;;;10.05;;
63326;SDS011;49452;48.366;10.926;2023-08-12T00:47:04;18.20;;;11.05;;
63326;SDS011;49452;48.366;10.926;2023-08-12T00:47:36;17.80;;;11.60;;
63326;SDS011;49452;48.366;10.926;2023-08-12T00:48:07;20.33;;;12.25;;
63326;SDS011;49452;48.366;10.926;2023-08-12T00:48:39;17.05;;;11.30;;
63326;SDS011;49452;48.366;10.926;2023-08-12T00:49:11;22.17;;;11.77;;
63326;SDS011;49452;48.366;10.926;2023-08-12T00:49:43;17.23;;;11.88;;
63326;SDS011;49452;48.366;10.926;2023-08-12T00:50:16;23.70;;;12.90;;
63326;SDS011;49452;48.366;10.926;2023-08-12T00:50:48;22.65;;;12.18;;
63326;SDS011;49452;48.366;10.926;2023-08-12T00:51:19;17.42;;;11.32;;
63326;SDS011;49452;48.366;10.926;2023-08-12T00:51:51;20.90;;;11.93;;
63326;SDS011;49452;48.366;10.926;2023-08-12T00:52:24;17.75;;;10.90;;
63326;SDS011;49452;48.366;10.926;2023-08-12T00:52:55;18.98;;;12.57;;
63326;SDS011;49452;48.366;10.926;2023-08-12T00:53:26;19.05;;;12.65;;
63326;SDS011;49452;48.366;10.926;2023-08-12T00:53:59;20.08;;;10.77;;
63326;SDS011;49452;48.366;10.926;2023-08-12T00:54:30;19.33;;;9.50;;
63326;SDS011;49452;48.366;10.926;2023-08-12T00:55:03;15.95;;;9.93;;
63326;SDS011;49452;48.366;10.926;2023-08-12T00:55:34;22.50;;;11.85;;
63326;SDS011;49452;48.366;10.926;2023-08-12T00:56:06;19.52;;;11.98;;
63326;SDS011;49452;48.366;10.926;2023-08-12T00:56:38;22.98;;;13.25;;
63326;SDS011;49452;48.366;10.926;2023-08-12T00:57:10;23.00;;;13.30;;
63326;SDS011;49452;48.366;10.926;2023-08-12T00:57:41;22.77;;;12.35;;
63326;SDS011;49452;48.366;10.926;2023-08-12T00:58:12;19.40;;;12.52;;
63326;SDS011;49452;48.366;10.926;2023-08-12T00:58:45;20.63;;;12.10;;
63326;SDS011;49452;48.366;10.926;2023-08-12T00:59:17;23.85;;;14.07;;
63326;SDS011;49452;48.366;10.926;2023-08-12T00:59:50;26.10;;;15.77;;
63326;SDS011;49452;48.366;10.926;2023-08-12T01:00:22;28.27;;;14.68;;
63326;SDS011;49452;48.366;10.926;2023-08-12T01:00:54;25.05;;;13.82;;
63326;SDS011;49452;48.366;10.926;2023-08-12T01:01:25;21.65;;;12.48;;
63326;SDS011;49452;48.366;10.926;2023-08-12T01:01:56;23.50;;;13.35;;
63326;SDS011;49452;48.366;10.926;2023-08-12T01:02:27;25.35;;;13.57;;
63326;SDS011;49452;48.366;10.926;2023-08-12T01:02:58;22.02;;;13.40;;
63326;SDS011;49452;48.366;10.926;2023-08-12T01:04:17;23.60;;;12.90;;
63326;SDS011;49452;48.366;10.926;2023-08-12T01:04:49;26.02;;;13.55;;
63326;SDS011;49452;48.366;10.926;2023-08-12T01:05:20;22.48;;;13.05;;
63326;SDS011;49452;48.366;10.926;2023-08-12T01:05:51;26.65;;;13.60;;
63326;SDS011;49452;48.366;10.926;2023-08-12T01:06:23;27.05;;;12.88;;
63326;SDS011;49452;48.366;10.926;2023-08-12T01:06:54;22.15;;;14.20;;
63326;SDS011;49452;48.366;10.926;2023-08-12T01:07:26;23.88;;;14.20;;
63326;SDS011;49452;48.366;10.926;2023-08-12T01:07:57;24.35;;;14.10;;
63326;SDS011;49452;48.366;10.926;2023-08-12T01:08:30;23.48;;;13.65;;
63326;SDS011;49452;48.366;10.926;2023-08-12T01:09:02;24.23;;;13.45;;
63326;SDS011;49452;48.366;10.926;2023-08-12T01:09:36;30.67;;;15.88;;
63326;SDS011;49452;48.366;10.926;2023-08-12T01:10:07;27.80;;;15.45;;
63326;SDS011;49452;48.366;10.926;2023-08-12T01:10:43;30.25;;;16.48;;
63326;SDS011;49452;48.366;10.926;2023-08-12T01:11:24;31.92;;;16.08;;
63326;SDS011;49452;48.366;10.926;2023-08-12T01:12:14;29.08;;;14.70;;
63326;SDS011;49452;48.366;10.926;2023-08-12T01:12:52;22.30;;;13.23;;
63326;SDS011;49452;48.366;10.926;2023-08-12T01:13:32;30.73;;;15.02;;
63326;SDS011;49452;48.366;10.926;2023-08-12T01:15:53;24.13;;;14.85;;
63326;SDS011;49452;48.366;10.926;2023-08-12T01:16:28;51.65;;;20.77;;
63326;SDS011;49452;48.366;10.926;2023-08-12T01:17:02;20.98;;;13.80;;
63326;SDS011;49452;48.366;10.926;2023-08-12T01:17:36;44.03;;;19.92;;
63326;SDS011;49452;48.366;10.926;2023-08-12T01:18:08;36.67;;;19.00;;
63326;SDS011;49452;48.366;10.926;2023-08-12T01:18:40;36.33;;;17.65;;
63326;SDS011;49452;48.366;10.926;2023-08-12T01:19:18;35.55;;;18.20;;
63326;SDS011;49452;48.366;10.926;2023-08-12T01:20:05;31.20;;;16.83;;
63326;SDS011;49452;48.366;10.926;2023-08-12T01:20:39;31.13;;;15.73;;
63326;SDS011;49452;48.366;10.926;2023-08-12T01:21:11;45.17;;;19.05;;
63326;SDS011;49452;48.366;10.926;2023-08-12T01:21:48;21.38;;;14.30;;
63326;SDS011;49452;48.366;10.926;2023-08-12T01:22:20;32.65;;;18.25;;
63326;SDS011;49452;48.366;10.926;2023-08-12T01:23:41;32.65;;;16.98;;
63326;SDS011;49452;48.366;10.926;2023-08-12T01:24:14;26.45;;;15.98;;
63326;SDS011;49452;48.366;10.926;2023-08-12T01:24:45;22.10;;;14.85;;
63326;SDS011;49452;48.366;10.926;2023-08-12T01:25:16;32.53;;;16.83;;
63326;SDS011;49452;48.366;10.926;2023-08-12T01:25:47;22.02;;;13.38;;
63326;SDS011;49452;48.366;10.926;2023-08-12T01:26:19;20.77;;;14.18;;
63326;SDS011;49452;48.366;10.926;2023-08-12T01:26:50;24.10;;;14.52;;
63326;SDS011;49452;48.366;10.926;2023-08-12T01:27:21;25.67;;;14.98;;
63326;SDS011;49452;48.366;10.926;2023-08-12T01:27:52;28.00;;;15.43;;
63326;SDS011;49452;48.366;10.926;2023-08-12T01:28:23;22.45;;;15.50;;
63326;SDS011;49452;48.366;10.926;2023-08-12T01:28:54;35.58;;;17.00;;
63326;SDS011;49452;48.366;10.926;2023-08-12T01:29:26;27.38;;;16.90;;
63326;SDS011;49452;48.366;10.926;2023-08-12T01:29:57;31.42;;;18.27;;
63326;SDS011;49452;48.366;10.926;2023-08-12T01:30:28;26.52;;;15.52;;
63326;SDS011;49452;48.366;10.926;2023-08-12T01:31:39;60.70;;;24.42;;
63326;SDS011;49452;48.366;10.926;2023-08-12T01:32:22;33.42;;;18.67;;
63326;SDS011;49452;48.366;10.926;2023-08-12T01:33:01;32.42;;;17.92;;
63326;SDS011;49452;48.366;10.926;2023-08-12T01:35:19;20.90;;;12.98;;
63326;SDS011;49452;48.366;10.926;2023-08-12T01:36:26;20.45;;;14.10;;
63326;SDS011;49452;48.366;10.926;2023-08-12T01:36:58;18.92;;;12.82;;
63326;SDS011;49452;48.366;10.926;2023-08-12T01:37:31;21.45;;;14.15;;
63326;SDS011;49452;48.366;10.926;2023-08-12T01:38:04;21.65;;;14.77;;
63326;SDS011;49452;48.366;10.926;2023-08-12T01:38:38;39.53;;;18.83;;
63326;SDS011;49452;48.366;10.926;2023-08-12T01:39:09;41.85;;;16.80;;
63326;SDS011;49452;48.366;10.926;2023-08-12T01:39:44;24.85;;;16.05;;
63326;SDS011;49452;48.366;10.926;2023-08-12T01:40:17;22.50;;;14.48;;
63326;SDS011;49452;48.366;10.926;2023-08-12T01:40:50;34.03;;;17.98;;
63326;SDS011;49452;48.366;10.926;2023-08-12T01:41:22;31.58;;;17.02;;
63326;SDS011;49452;48.366;10.926;2023-08-12T01:41:54;27.27;;;16.85;;
63326;SDS011;49452;48.366;10.926;2023-08-12T01:42:26;27.83;;;15.82;;
63326;SDS011;49452;48.366;10.926;2023-08-12T01:42:59;22.70;;;13.50;;
63326;SDS011;49452;48.366;10.926;2023-08-12T01:43:30;25.60;;;14.88;;
63326;SDS011;49452;48.366;10.926;2023-08-12T01:44:02;24.80;;;14.90;;
63326;SDS011;49452;48.366;10.926;2023-08-12T01:44:33;25.67;;;14.85;;
63326;SDS011;49452;48.366;10.926;2023-08-12T01:45:05;25.92;;;15.60;;
63326;SDS011;49452;48.366;10.926;2023-08-12T01:45:37;19.05;;;13.75;;
63326;SDS011;49452;48.366;10.926;2023-08-12T01:46:08;23.80;;;15.15;;
63326;SDS011;49452;48.366;10.926;2023-08-12T01:46:42;22.92;;;15.13;;
63326;SDS011;49452;48.366;10.926;2023-08-12T01:47:14;27.58;;;14.80;;
63326;SDS011;49452;48.366;10.926;2023-08-12T01:47:45;27.95;;;16.35;;
63326;SDS011;49452;48.366;10.926;2023-08-12T01:48:17;23.33;;;14.57;;
63326;SDS011;49452;48.366;10.926;2023-08-12T01:48:51;22.25;;;14.00;;
63326;SDS011;49452;48.366;10.926;2023-08-12T01:49:22;25.45;;;14.95;;
63326;SDS011;49452;48.366;10.926;2023-08-12T01:49:55;33.53;;;18.60;;
63326;SDS011;49452;48.366;10.926;2023-08-12T01:50:28;78.85;;;27.80;;
63326;SDS011;49452;48.366;10.926;2023-08-12T01:50:59;45.67;;;21.20;;
63326;SDS011;49452;48.366;10.926;2023-08-12T01:51:31;35.38;;;18.23;;
63326;SDS011;49452;48.366;10.926;2023-08-12T01:52:02;24.00;;;14.70;;
63326;SDS011;49452;48.366;10.926;2023-08-12T01:52:34;24.63;;;15.75;;
63326;SDS011;49452;48.366;10.926;2023-08-12T01:53:05;25.92;;;15.25;;
63326;SDS011;49452;48.366;10.926;2023-08-12T01:53:36;24.92;;;15.25;;
63326;SDS011;49452;48.366;10.926;2023-08-12T01:54:08;28.40;;;16.13;;
63326;SDS011;49452;48.366;10.926;2023-08-12T01:54:39;47.25;;;20.85;;
63326;SDS011;49452;48.366;10.926;2023-08-12T01:55:12;30.40;;;16.13;;
63326;SDS011;49452;48.366;10.926;2023-08-12T01:55:43;40.63;;;19.92;;
63326;SDS011;49452;48.366;10.926;2023-08-12T01:56:15;27.50;;;15.05;;
63326;SDS011;49452;48.366;10.926;2023-08-12T01:56:47;24.58;;;15.02;;
63326;SDS011;49452;48.366;10.926;2023-08-12T01:57:18;26.48;;;15.35;;
63326;SDS011;49452;48.366;10.926;2023-08-12T01:57:50;33.38;;;18.75;;
63326;SDS011;49452;48.366;10.926;2023-08-12T01:58:21;54.28;;;22.70;;
63326;SDS011;49452;48.366;10.926;2023-08-12T01:58:52;35.35;;;18.02;;
63326;SDS011;49452;48.366;10.926;2023-08-12T01:59:23;28.85;;;15.55;;
63326;SDS011;49452;48.366;10.926;2023-08-12T01:59:55;35.13;;;16.17;;
63326;SDS011;49452;48.366;10.926;2023-08-12T02:00:26;32.40;;;16.90;;
63326;SDS011;49452;48.366;10.926;2023-08-12T02:00:57;50.30;;;20.98;;
63326;SDS011;49452;48.366;10.926;2023-08-12T02:01:28;25.23;;;15.30;;
63326;SDS011;49452;48.366;10.926;2023-08-12T02:01:59;28.45;;;16.38;;
63326;SDS011;49452;48.366;10.926;2023-08-12T02:02:30;24.02;;;13.93;;
63326;SDS011;49452;48.366;10.926;2023-08-12T02:03:02;22.83;;;14.93;;
63326;SDS011;49452;48.366;10.926;2023-08-12T02:03:33;21.65;;;14.80;;
63326;SDS011;49452;48.366;10.926;2023-08-12T02:04:04;27.15;;;15.43;;
63326;SDS011;49452;48.366;10.926;2023-08-12T02:04:36;20.35;;;12.95;;
63326;SDS011;49452;48.366;10.926;2023-08-12T02:05:08;26.65;;;15.45;;
63326;SDS011;49452;48.366;10.926;2023-08-12T02:05:39;24.10;;;14.07;;
63326;SDS011;49452;48.366;10.926;2023-08-12T02:06:12;29.08;;;14.25;;
63326;SDS011;49452;48.366;10.926;2023-08-12T02:06:43;18.15;;;10.93;;
63326;SDS011;49452;48.366;10.926;2023-08-12T02:07:14;29.55;;;15.43;;
63326;SDS011;49452;48.366;10.926;2023-08-12T02:07:45;23.75;;;14.15;;
63326;SDS011;49452;48.366;10.926;2023-08-12T02:08:16;26.60;;;14.68;;
63326;SDS011;49452;48.366;10.926;2023-08-12T02:08:47;22.10;;;13.25;;
63326;SDS011;49452;48.366;10.926;2023-08-12T02:09:19;20.70;;;13.68;;
63326;SDS011;49452;48.366;10.926;2023-08-12T02:09:50;20.48;;;13.60;;
63326;SDS011;49452;48.366;10.926;2023-08-12T02:10:21;23.95;;;14.65;;
63326;SDS011;49452;48.366;10.926;2023-08-12T02:10:52;35.05;;;18.00;;
63326;SDS011;49452;48.366;10.926;2023-08-12T02:11:23;27.77;;;16.05;;
63326;SDS011;49452;48.366;10.926;2023-08-12T02:11:54;36.53;;;19.67;;
63326;SDS011;49452;48.366;10.926;2023-08-12T02:12:25;29.20;;;16.10;;
63326;SDS011;49452;48.366;10.926;2023-08-12T02:12:57;19.52;;;13.93;;
63326;SDS011;49452;48.366;10.926;2023-08-12T02:13:28;26.52;;;14.30;;
63326;SDS011;49452;48.366;10.926;2023-08-12T02:14:00;34.38;;;18.05;;
63326;SDS011;49452;48.366;10.926;2023-08-12T02:14:31;25.55;;;15.27;;
63326;SDS011;49452;48.366;10.926;2023-08-12T02:15:02;20.80;;;14.30;;
63326;SDS011;49452;48.366;10.926;2023-08-12T02:15:34;27.70;;;16.05;;
63326;SDS011;49452;48.366;10.926;2023-08-12T02:16:05;26.85;;;15.30;;
63326;SDS011;49452;48.366;10.926;2023-08-12T02:16:37;19.38;;;13.07;;
63326;SDS011;49452;48.366;10.926;2023-08-12T02:17:08;24.95;;;15.77;;
63326;SDS011;49452;48.366;10.926;2023-08-12T02:17:40;48.03;;;21.05;;
63326;SDS011;49452;48.366;10.926;2023-08-12T02:18:13;30.55;;;16.38;;
63326;SDS011;49452;48.366;10.926;2023-08-12T02:18:44;24.00;;;14.75;;
63326;SDS011;49452;48.366;10.926;2023-08-12T02:19:15;33.33;;;16.63;;
63326;SDS011;49452;48.366;10.926;2023-08-12T02:19:46;21.95;;;15.32;;
63326;SDS011;49452;48.366;10.926;2023-08-12T02:20:18;29.58;;;15.25;;
63326;SDS011;49452;48.366;10.926;2023-08-12T02:20:49;27.48;;;17.02;;
63326;SDS011;49452;48.366;10.926;2023-08-12T02:21:20;34.75;;;17.45;;
63326;SDS011;49452;48.366;10.926;2023-08-12T02:21:51;29.95;;;16.85;;
63326;SDS011;49452;48.366;10.926;2023-08-12T02:22:22;27.92;;;15.48;;
63326;SDS011;49452;48.366;10.926;2023-08-12T02:22:54;30.30;;;16.58;;
63326;SDS011;49452;48.366;10.926;2023-08-12T02:23:25;34.83;;;18.50;;
63326;SDS011;49452;48.366;10.926;2023-08-12T02:23:57;38.60;;;19.90;;
63326;SDS011;49452;48.366;10.926;2023-08-12T02:24:28;46.08;;;20.80;;
63326;SDS011;49452;48.366;10.926;2023-08-12T02:24:59;33.25;;;18.52;;
63326;SDS011;49452;48.366;10.926;2023-08-12T02:25:31;52.95;;;23.23;;
63326;SDS011;49452;48.366;10.926;2023-08-12T02:26:04;52.20;;;22.23;;
63326;SDS011;49452;48.366;10.926;2023-08-12T02:26:35;33.92;;;17.15;;
63326;SDS011;49452;48.366;10.926;2023-08-12T02:27:06;21.17;;;12.13;;
63326;SDS011;49452;48.366;10.926;2023-08-12T02:27:37;31.83;;;17.98;;
63326;SDS011;49452;48.366;10.926;2023-08-12T02:28:08;38.80;;;18.98;;
63326;SDS011;49452;48.366;10.926;2023-08-12T02:28:40;22.92;;;14.00;;
63326;SDS011;49452;48.366;10.926;2023-08-12T02:29:11;26.58;;;16.98;;
63326;SDS011;49452;48.366;10.926;2023-08-12T02:29:42;31.13;;;17.90;;
63326;SDS011;49452;48.366;10.926;2023-08-12T02:30:13;33.85;;;18.02;;
63326;SDS011;49452;48.366;10.926;2023-08-12T02:30:45;36.85;;;19.83;;
63326;SDS011;49452;48.366;10.926;2023-08-12T02:31:16;27.77;;;15.85;;
63326;SDS011;49452;48.366;10.926;2023-08-12T02:31:47;33.75;;;17.30;;
63326;SDS011;49452;48.366;10.926;2023-08-12T02:32:18;24.13;;;15.93;;
63326;SDS011;49452;48.366;10.926;2023-08-12T02:32:50;36.70;;;18.48;;
63326;SDS011;49452;48.366;10.926;2023-08-12T02:33:21;65.28;;;24.60;;
63326;SDS011;49452;48.366;10.926;2023-08-12T02:33:52;31.83;;;18.30;;
63326;SDS011;49452;48.366;10.926;2023-08-12T02:34:23;28.02;;;17.17;;
63326;SDS011;49452;48.366;10.926;2023-08-12T02:34:56;40.13;;;19.83;;
63326;SDS011;49452;48.366;10.926;2023-08-12T02:35:27;33.63;;;18.20;;
63326;SDS011;49452;48.366;10.926;2023-08-12T02:35:58;40.70;;;20.27;;
63326;SDS011;49452;48.366;10.926;2023-08-12T02:36:30;41.28;;;20.00;;
63326;SDS011;49452;48.366;10.926;2023-08-12T02:37:01;42.45;;;20.25;;
63326;SDS011;49452;48.366;10.926;2023-08-12T02:37:34;21.00;;;12.85;;
63326;SDS011;49452;48.366;10.926;2023-08-12T02:38:06;31.27;;;17.48;;
63326;SDS011;49452;48.366;10.926;2023-08-12T02:38:37;30.45;;;16.60;;
63326;SDS011;49452;48.366;10.926;2023-08-12T02:39:09;29.88;;;18.23;;
63326;SDS011;49452;48.366;10.926;2023-08-12T02:39:40;39.15;;;21.27;;
63326;SDS011;49452;48.366;10.926;2023-08-12T02:40:11;62.17;;;25.45;;
63326;SDS011;49452;48.366;10.926;2023-08-12T02:40:42;49.40;;;23.17;;
63326;SDS011;49452;48.366;10.926;2023-08-12T02:41:15;36.58;;;18.95;;
63326;SDS011;49452;48.366;10.926;2023-08-12T02:41:46;31.90;;;18.08;;
63326;SDS011;49452;48.366;10.926;2023-08-12T02:42:17;61.00;;;20.65;;
63326;SDS011;49452;48.366;10.926;2023-08-12T02:42:48;165.77;;;38.55;;
63326;SDS011;49452;48.366;10.926;2023-08-12T02:43:19;61.13;;;23.77;;
63326;SDS011;49452;48.366;10.926;2023-08-12T02:43:51;45.88;;;20.63;;
63326;SDS011;49452;48.366;10.926;2023-08-12T02:44:22;39.15;;;20.38;;
63326;SDS011;49452;48.366;10.926;2023-08-12T02:44:53;63.22;;;25.20;;
63326;SDS011;49452;48.366;10.926;2023-08-12T02:45:24;42.05;;;21.13;;
63326;SDS011;49452;48.366;10.926;2023-08-12T02:45:55;39.70;;;18.55;;
63326;SDS011;49452;48.366;10.926;2023-08-12T02:46:27;123.93;;;33.67;;
63326;SDS011;49452;48.366;10.926;2023-08-12T02:46:58;42.85;;;19.58;;
63326;SDS011;49452;48.366;10.926;2023-08-12T02:47:29;141.88;;;32.35;;
63326;SDS011;49452;48.366;10.926;2023-08-12T02:48:00;45.45;;;21.80;;
63326;SDS011;49452;48.366;10.926;2023-08-12T02:48:31;36.00;;;19.25;;
63326;SDS011;49452;48.366;10.926;2023-08-12T02:49:02;42.38;;;20.42;;
63326;SDS011;49452;48.366;10.926;2023-08-12T02:49:33;29.90;;;17.08;;
63326;SDS011;49452;48.366;10.926;2023-08-12T02:50:05;33.35;;;18.75;;
63326;SDS011;49452;48.366;10.926;2023-08-12T02:50:37;34.83;;;18.75;;
63326;SDS011;49452;48.366;10.926;2023-08-12T02:51:08;38.17;;;19.60;;
63326;SDS011;49452;48.366;10.926;2023-08-12T02:51:41;36.88;;;18.55;;
63326;SDS011;49452;48.366;10.926;2023-08-12T02:52:12;31.10;;;18.80;;
63326;SDS011;49452;48.366;10.926;2023-08-12T02:52:43;34.58;;;19.38;;
63326;SDS011;49452;48.366;10.926;2023-08-12T02:53:14;35.30;;;18.77;;
63326;SDS011;49452;48.366;10.926;2023-08-12T02:53:46;39.83;;;20.55;;
63326;SDS011;49452;48.366;10.926;2023-08-12T02:54:18;42.05;;;20.02;;
63326;SDS011;49452;48.366;10.926;2023-08-12T02:54:49;88.50;;;30.02;;
63326;SDS011;49452;48.366;10.926;2023-08-12T02:55:20;44.33;;;21.20;;
63326;SDS011;49452;48.366;10.926;2023-08-12T02:55:51;43.45;;;21.52;;
63326;SDS011;49452;48.366;10.926;2023-08-12T02:56:22;29.88;;;18.88;;
63326;SDS011;49452;48.366;10.926;2023-08-12T02:56:54;52.88;;;23.30;;
63326;SDS011;49452;48.366;10.926;2023-08-12T02:57:25;59.08;;;23.90;;
63326;SDS011;49452;48.366;10.926;2023-08-12T02:57:56;58.20;;;23.48;;
63326;SDS011;49452;48.366;10.926;2023-08-12T02:58:28;49.65;;;21.60;;
63326;SDS011;49452;48.366;10.926;2023-08-12T02:58:59;57.47;;;25.00;;
63326;SDS011;49452;48.366;10.926;2023-08-12T02:59:30;35.72;;;21.20;;
63326;SDS011;49452;48.366;10.926;2023-08-12T03:00:01;30.50;;;18.48;;
63326;SDS011;49452;48.366;10.926;2023-08-12T03:00:34;28.77;;;17.80;;
63326;SDS011;49452;48.366;10.926;2023-08-12T03:01:06;28.67;;;17.80;;
63326;SDS011;49452;48.366;10.926;2023-08-12T03:01:40;26.63;;;16.60;;
63326;SDS011;49452;48.366;10.926;2023-08-12T03:02:12;27.48;;;16.35;;
63326;SDS011;49452;48.366;10.926;2023-08-12T03:02:44;31.67;;;16.88;;
63326;SDS011;49452;48.366;10.926;2023-08-12T03:03:15;26.77;;;16.08;;
63326;SDS011;49452;48.366;10.926;2023-08-12T03:03:47;24.63;;;15.93;;
63326;SDS011;49452;48.366;10.926;2023-08-12T03:04:18;42.22;;;21.20;;
63326;SDS011;49452;48.366;10.926;2023-08-12T03:04:49;38.35;;;19.83;;
63326;SDS011;49452;48.366;10.926;2023-08-12T03:05:21;32.20;;;18.83;;
63326;SDS011;49452;48.366;10.926;2023-08-12T03:05:53;28.70;;;18.42;;
63326;SDS011;49452;48.366;10.926;2023-08-12T03:06:24;41.17;;;20.73;;
63326;SDS011;49452;48.366;10.926;2023-08-12T03:06:55;57.13;;;25.42;;
63326;SDS011;49452;48.366;10.926;2023-08-12T03:07:26;57.85;;;25.73;;
63326;SDS011;49452;48.366;10.926;2023-08-12T03:07:58;46.10;;;22.38;;
63326;SDS011;49452;48.366;10.926;2023-08-12T03:08:32;39.47;;;20.73;;
63326;SDS011;49452;48.366;10.926;2023-08-12T03:09:03;34.95;;;19.85;;
63326;SDS011;49452;48.366;10.926;2023-08-12T03:09:35;38.80;;;21.13;;
63326;SDS011;49452;48.366;10.926;2023-08-12T03:10:06;31.30;;;19.25;;